createdAt,value
2022-08-24T00:02:01.698Z,23.00
2022-08-24T00:04:32.656Z,23.00
2022-08-24T00:07:02.754Z,23.00
2022-08-24T00:09:32.010Z,23.00
2022-08-24T00:11:59.810Z,22.90
2022-08-24T00:14:27.372Z,22.90
2022-08-24T00:16:57.734Z,22.90
2022-08-24T00:19:25.872Z,22.80
2022-08-24T00:21:55.402Z,22.90
2022-08-24T00:24:23.541Z,22.90
2022-08-24T00:26:50.872Z,22.90
2022-08-24T00:29:18.958Z,22.80
2022-08-24T00:31:48.833Z,22.70
2022-08-24T00:34:17.881Z,22.70
2022-08-24T00:36:45.533Z,22.70
2022-08-24T00:39:13.662Z,22.70
2022-08-24T00:41:43.280Z,22.80
2022-08-24T00:44:11.717Z,22.80
2022-08-24T00:46:44.978Z,22.70
2022-08-24T00:49:37.493Z,22.60
2022-08-24T00:52:25.361Z,22.60
2022-08-24T00:54:57.993Z,22.60
2022-08-24T00:57:30.567Z,22.60
2022-08-24T01:00:04.641Z,22.60
2022-08-24T01:02:35.283Z,22.60
2022-08-24T01:05:08.346Z,22.50
2022-08-24T01:07:38.090Z,22.50
2022-08-24T01:10:12.821Z,22.50
2022-08-24T01:12:48.082Z,22.40
2022-08-24T01:15:36.099Z,22.30
2022-08-24T01:18:23.237Z,22.30
2022-08-24T01:21:03.586Z,22.30
2022-08-24T01:24:06.338Z,22.20
2022-08-24T01:26:39.927Z,22.20
2022-08-24T01:29:14.052Z,22.20
2022-08-24T01:31:44.528Z,22.20
2022-08-24T01:34:13.281Z,22.20
2022-08-24T01:36:54.301Z,22.20
2022-08-24T01:39:29.045Z,22.10
2022-08-24T01:41:56.778Z,22.10
2022-08-24T01:44:26.311Z,22.00
2022-08-24T01:46:55.716Z,22.00
2022-08-24T01:49:28.567Z,22.00
2022-08-24T01:51:56.733Z,22.00
2022-08-24T01:54:26.996Z,22.00
2022-08-24T01:56:56.833Z,22.00
2022-08-24T01:59:25.355Z,22.00
2022-08-24T02:01:57.151Z,22.00
2022-08-24T02:04:24.940Z,21.90
2022-08-24T02:06:53.858Z,21.90
2022-08-24T02:09:21.352Z,21.90
2022-08-24T02:11:48.937Z,21.90
2022-08-24T02:14:19.435Z,21.90
2022-08-24T02:16:46.928Z,21.90
2022-08-24T02:19:14.440Z,21.80
2022-08-24T02:21:44.721Z,21.80
2022-08-24T02:24:12.369Z,21.80
2022-08-24T02:26:40.713Z,21.80
2022-08-24T02:29:08.098Z,21.80
2022-08-24T02:31:36.944Z,21.90
2022-08-24T02:34:05.013Z,21.90
2022-08-24T02:36:32.748Z,21.90
2022-08-24T02:39:00.539Z,21.70
2022-08-24T02:41:28.237Z,21.70
2022-08-24T02:43:57.138Z,21.70
2022-08-24T02:46:27.590Z,21.70
2022-08-24T02:48:58.078Z,21.70
2022-08-24T02:51:44.262Z,21.60
2022-08-24T02:54:17.368Z,21.60
2022-08-24T02:56:46.068Z,21.60
2022-08-24T02:59:16.365Z,21.50
2022-08-24T03:01:45.365Z,21.60
2022-08-24T03:04:13.742Z,21.50
2022-08-24T03:06:41.377Z,21.50
2022-08-24T03:09:09.143Z,21.50
2022-08-24T03:11:36.787Z,21.50
2022-08-24T03:14:07.133Z,21.50
2022-08-24T03:16:38.563Z,21.50
2022-08-24T03:19:06.208Z,21.50
2022-08-24T03:21:33.905Z,21.50
2022-08-24T03:24:01.776Z,21.50
2022-08-24T03:26:29.037Z,21.40
2022-08-24T03:28:56.377Z,21.40
2022-08-24T03:31:29.102Z,21.40
2022-08-24T03:33:56.870Z,21.50
2022-08-24T03:36:26.959Z,21.40
2022-08-24T03:38:54.768Z,21.30
2022-08-24T03:41:22.604Z,21.30
2022-08-24T03:43:50.855Z,21.30
2022-08-24T03:46:22.365Z,21.30
2022-08-24T03:48:55.833Z,21.30
2022-08-24T03:51:26.291Z,21.30
2022-08-24T03:53:56.874Z,21.10
2022-08-24T03:56:24.897Z,21.20
2022-08-24T03:58:53.120Z,21.20
2022-08-24T04:01:21.104Z,21.20
2022-08-24T04:04:12.871Z,21.20
2022-08-24T04:06:44.326Z,21.20
2022-08-24T04:09:17.245Z,21.20
2022-08-24T04:11:45.568Z,21.20
2022-08-24T04:14:24.546Z,21.10
2022-08-24T04:16:57.751Z,21.10
2022-08-24T04:19:25.902Z,21.00
2022-08-24T04:21:54.363Z,20.90
2022-08-24T04:24:23.890Z,20.90
2022-08-24T04:26:51.263Z,20.80
2022-08-24T04:29:20.431Z,20.80
2022-08-24T04:31:48.468Z,20.80
2022-08-24T04:34:17.456Z,20.80
2022-08-24T04:36:46.662Z,20.90
2022-08-24T04:39:16.965Z,20.80
2022-08-24T04:41:44.323Z,20.80
2022-08-24T04:44:11.717Z,20.80
2022-08-24T04:46:39.831Z,20.90
2022-08-24T04:49:07.079Z,20.80
2022-08-24T04:51:36.506Z,20.90
2022-08-24T04:54:06.194Z,20.80
2022-08-24T04:56:34.237Z,20.90
2022-08-24T04:59:01.672Z,20.90
2022-08-24T05:01:35.241Z,20.80
2022-08-24T05:04:05.966Z,20.80
2022-08-24T05:06:33.984Z,20.80
2022-08-24T05:09:02.953Z,20.80
2022-08-24T05:11:31.134Z,20.90
2022-08-24T05:14:01.051Z,20.90
2022-08-24T05:16:32.490Z,20.90
2022-08-24T05:19:00.605Z,20.90
2022-08-24T05:21:28.469Z,21.00
2022-08-24T05:23:55.716Z,21.00
2022-08-24T05:26:25.953Z,21.00
2022-08-24T05:28:59.025Z,21.10
2022-08-24T05:31:28.655Z,21.10
2022-08-24T05:33:56.090Z,21.10
2022-08-24T05:36:26.634Z,21.10
2022-08-24T05:39:01.462Z,21.20
2022-08-24T05:41:30.117Z,21.20
2022-08-24T05:43:57.587Z,21.30
2022-08-24T05:46:28.151Z,21.30
2022-08-24T05:49:00.134Z,21.40
2022-08-24T05:51:30.522Z,21.40
2022-08-24T05:53:58.096Z,21.50
2022-08-24T05:56:31.888Z,21.40
2022-08-24T05:59:02.213Z,21.50
2022-08-24T06:01:30.026Z,21.60
2022-08-24T06:03:58.841Z,21.70
2022-08-24T06:06:27.589Z,21.90
2022-08-24T06:08:57.063Z,22.10
2022-08-24T06:11:34.470Z,22.30
2022-08-24T06:14:18.123Z,22.60
2022-08-24T06:16:46.369Z,22.80
2022-08-24T06:19:18.335Z,23.10
2022-08-24T06:21:48.372Z,23.40
2022-08-24T06:24:16.881Z,23.80
2022-08-24T06:27:03.826Z,24.10
2022-08-24T06:29:37.127Z,24.50
2022-08-24T06:32:05.012Z,24.80
2022-08-24T06:34:32.747Z,25.00
2022-08-24T06:37:04.920Z,25.10
2022-08-24T06:39:34.699Z,25.30
2022-08-24T06:42:01.937Z,25.40
2022-08-24T06:44:30.205Z,25.60
2022-08-24T06:47:00.554Z,25.70
2022-08-24T06:49:28.419Z,25.80
2022-08-24T06:52:01.560Z,25.90
2022-08-24T06:54:31.807Z,26.10
2022-08-24T06:56:59.754Z,26.30
2022-08-24T06:59:27.992Z,26.20
2022-08-24T07:01:59.352Z,26.20
2022-08-24T07:04:28.315Z,26.20
2022-08-24T07:06:56.421Z,26.10
2022-08-24T07:09:25.073Z,25.80
2022-08-24T07:11:52.850Z,25.70
2022-08-24T07:14:21.693Z,25.80
2022-08-24T07:16:49.249Z,25.90
2022-08-24T07:19:17.024Z,25.80
2022-08-24T07:21:44.473Z,25.50
2022-08-24T07:24:11.861Z,25.60
2022-08-24T07:26:40.567Z,25.60
2022-08-24T07:29:43.688Z,25.40
2022-08-24T07:32:03.133Z,25.70
2022-08-24T07:34:32.847Z,26.20
2022-08-24T07:37:00.505Z,26.40
2022-08-24T07:39:28.208Z,26.30
2022-08-24T07:42:13.053Z,26.30
2022-08-24T07:44:44.677Z,26.20
2022-08-24T07:47:38.493Z,25.80
2022-08-24T07:50:01.168Z,25.90
2022-08-24T07:52:32.247Z,26.30
2022-08-24T07:54:59.724Z,26.30
2022-08-24T07:57:28.155Z,26.10
2022-08-24T07:59:58.851Z,25.90
2022-08-24T08:02:30.018Z,25.90
2022-08-24T08:05:04.752Z,25.90
2022-08-24T08:07:32.901Z,26.00
2022-08-24T08:10:03.828Z,26.10
2022-08-24T08:12:35.084Z,26.10
2022-08-24T08:15:03.026Z,26.30
2022-08-24T08:17:34.021Z,26.30
2022-08-24T08:20:04.952Z,26.40
2022-08-24T08:23:01.552Z,26.30
2022-08-24T08:25:35.676Z,26.40
2022-08-24T08:28:18.511Z,26.60
2022-08-24T08:30:54.379Z,27.80
2022-08-24T08:33:24.355Z,28.70
2022-08-24T08:35:58.778Z,28.60
2022-08-24T08:38:29.013Z,27.90
2022-08-24T08:41:05.440Z,27.50
2022-08-24T08:43:57.475Z,27.30
2022-08-24T08:46:43.526Z,27.10
2022-08-24T08:49:29.914Z,27.00
2022-08-24T08:52:18.445Z,26.80
2022-08-24T08:54:59.445Z,27.00
2022-08-24T08:57:32.820Z,26.70
2022-08-24T09:00:10.570Z,26.80
2022-08-24T09:02:58.701Z,26.90
2022-08-24T09:06:09.119Z,26.80
2022-08-24T09:08:57.808Z,26.80
2022-08-24T09:11:43.944Z,26.60
2022-08-24T09:14:55.371Z,26.40
2022-08-24T09:17:36.917Z,26.70
2022-08-24T09:20:45.599Z,26.80
2022-08-24T09:23:31.819Z,27.00
2022-08-24T09:26:23.666Z,27.30
2022-08-24T09:29:10.271Z,27.50
2022-08-24T09:32:08.200Z,27.60
2022-08-24T09:34:51.471Z,27.10
2022-08-24T09:38:00.873Z,27.20
2022-08-24T09:41:03.912Z,27.40
2022-08-24T09:43:51.922Z,28.10
2022-08-24T09:46:46.912Z,29.70
2022-08-24T09:49:29.489Z,31.30
2022-08-24T09:52:15.397Z,32.00
2022-08-24T09:55:12.206Z,32.70
2022-08-24T09:58:08.105Z,33.60
2022-08-24T10:00:52.217Z,33.90
2022-08-24T10:03:36.463Z,34.40
2022-08-24T10:06:18.389Z,34.50
2022-08-24T10:09:20.572Z,34.20
2022-08-24T10:12:00.801Z,34.30
2022-08-24T10:14:33.303Z,34.50
2022-08-24T10:17:39.029Z,35.50
2022-08-24T10:20:23.955Z,36.40
2022-08-24T10:23:04.361Z,37.70
2022-08-24T10:25:41.134Z,37.40
2022-08-24T10:28:31.314Z,37.10
2022-08-24T10:31:12.667Z,37.20
2022-08-24T10:34:21.996Z,38.30
2022-08-24T10:37:04.441Z,38.20
2022-08-24T10:40:06.209Z,38.10
2022-08-24T10:43:03.886Z,38.60
2022-08-24T10:46:33.827Z,38.90
2022-08-24T10:49:12.300Z,38.70
2022-08-24T10:52:19.427Z,38.10
2022-08-24T10:54:47.897Z,38.50
2022-08-24T10:57:36.317Z,38.40
2022-08-24T11:00:22.973Z,37.60
2022-08-24T11:03:12.530Z,38.10
2022-08-24T11:05:47.094Z,38.70
2022-08-24T11:08:28.618Z,38.50
2022-08-24T11:11:23.500Z,38.10
2022-08-24T11:14:05.057Z,38.40
2022-08-24T11:16:43.149Z,38.10
2022-08-24T11:19:29.825Z,38.10
2022-08-24T11:22:01.906Z,38.40
2022-08-24T11:24:47.354Z,39.10
2022-08-24T11:27:20.907Z,39.30
2022-08-24T11:29:57.526Z,38.80
2022-08-24T11:32:33.395Z,38.30
2022-08-24T11:35:07.947Z,37.90
2022-08-24T11:37:39.489Z,38.40
2022-08-24T11:40:08.923Z,39.10
2022-08-24T11:42:42.501Z,39.30
2022-08-24T11:45:41.048Z,39.10
2022-08-24T11:48:27.448Z,38.50
2022-08-24T11:51:26.398Z,38.20
2022-08-24T11:53:53.661Z,38.20
2022-08-24T11:56:39.749Z,38.70
2022-08-24T11:59:20.989Z,39.10
2022-08-24T12:02:03.895Z,39.00
2022-08-24T12:04:51.311Z,39.10
2022-08-24T12:07:42.876Z,38.40
2022-08-24T12:10:19.049Z,38.50
2022-08-24T12:13:16.350Z,38.80
2022-08-24T12:15:56.835Z,39.10
2022-08-24T12:18:49.218Z,39.20
2022-08-24T12:21:20.223Z,38.70
2022-08-24T12:23:57.568Z,38.80
2022-08-24T12:26:38.641Z,39.30
2022-08-24T12:29:35.522Z,39.80
2022-08-24T12:32:09.850Z,39.40
2022-08-24T12:34:52.164Z,39.60
2022-08-24T12:37:29.502Z,40.10
2022-08-24T12:40:16.658Z,39.60
2022-08-24T12:42:52.535Z,39.10
2022-08-24T12:45:25.496Z,38.10
2022-08-24T12:48:08.462Z,38.00
2022-08-24T12:50:46.691Z,38.60
2022-08-24T12:53:34.065Z,39.00
2022-08-24T12:56:28.708Z,39.40
2022-08-24T12:59:33.474Z,38.80
2022-08-24T13:02:28.985Z,38.70
2022-08-24T13:05:09.450Z,38.00
2022-08-24T13:07:48.294Z,37.80
2022-08-24T13:10:40.263Z,37.60
2022-08-24T13:13:15.848Z,36.90
2022-08-24T13:15:46.261Z,37.20
2022-08-24T13:18:15.721Z,37.50
2022-08-24T13:20:43.749Z,37.60
2022-08-24T13:23:14.798Z,38.00
2022-08-24T13:25:48.496Z,38.00
2022-08-24T13:28:27.489Z,37.60
2022-08-24T13:31:20.285Z,37.80
2022-08-24T13:34:04.465Z,37.80
2022-08-24T13:36:31.902Z,37.50
2022-08-24T13:39:03.256Z,36.90
2022-08-24T13:42:01.443Z,36.70
2022-08-24T13:44:51.647Z,36.30
2022-08-24T13:47:22.537Z,36.20
2022-08-24T13:50:07.022Z,36.00
2022-08-24T13:53:15.880Z,36.30
2022-08-24T13:56:10.849Z,36.30
2022-08-24T13:58:50.619Z,36.80
2022-08-24T14:01:56.371Z,36.90
2022-08-24T14:04:26.645Z,36.70
2022-08-24T14:07:00.852Z,36.10
2022-08-24T14:09:52.596Z,35.80
2022-08-24T14:12:35.233Z,36.00
2022-08-24T14:15:10.453Z,35.80
2022-08-24T14:17:55.971Z,35.70
2022-08-24T14:20:48.258Z,35.20
2022-08-24T14:23:46.393Z,34.90
2022-08-24T14:26:38.867Z,34.60
2022-08-24T14:29:23.465Z,34.00
2022-08-24T14:32:13.735Z,34.20
2022-08-24T14:34:59.783Z,34.50
2022-08-24T14:38:02.404Z,34.60
2022-08-24T14:40:53.092Z,34.50
2022-08-24T14:43:30.774Z,34.80
2022-08-24T14:46:17.222Z,34.80
2022-08-24T14:48:55.067Z,34.80
2022-08-24T14:51:25.874Z,34.70
2022-08-24T14:54:16.745Z,34.60
2022-08-24T14:56:53.585Z,34.50
2022-08-24T14:59:58.559Z,34.60
2022-08-24T15:02:56.352Z,34.10
2022-08-24T15:05:38.325Z,34.10
2022-08-24T15:08:09.625Z,34.10
2022-08-24T15:10:48.032Z,33.80
2022-08-24T15:13:27.921Z,33.40
2022-08-24T15:16:05.417Z,33.50
2022-08-24T15:18:45.516Z,33.50
2022-08-24T15:21:27.649Z,33.40
2022-08-24T15:24:08.038Z,33.10
2022-08-24T15:26:50.569Z,32.90
2022-08-24T15:29:22.407Z,32.90
2022-08-24T15:32:18.632Z,33.10
2022-08-24T15:34:53.245Z,33.10
2022-08-24T15:37:46.786Z,33.10
2022-08-24T15:40:18.641Z,33.20
2022-08-24T15:42:49.016Z,33.30
2022-08-24T15:45:21.087Z,32.90
2022-08-24T15:47:53.165Z,32.80
2022-08-24T15:50:23.672Z,32.70
2022-08-24T15:52:55.118Z,32.10
2022-08-24T15:55:42.204Z,32.00
2022-08-24T15:58:12.968Z,31.80
2022-08-24T16:00:59.000Z,31.80
2022-08-24T16:03:46.390Z,31.90
2022-08-24T16:06:31.127Z,31.90
2022-08-24T16:09:16.255Z,32.00
2022-08-24T16:11:48.901Z,32.00
2022-08-24T16:14:41.496Z,31.90
2022-08-24T16:17:34.832Z,32.00
2022-08-24T16:20:11.403Z,32.10
2022-08-24T16:22:58.469Z,32.20
2022-08-24T16:25:38.728Z,32.20
2022-08-24T16:28:12.825Z,32.30
2022-08-24T16:30:47.906Z,32.20
2022-08-24T16:33:43.297Z,32.30
2022-08-24T16:36:15.941Z,32.10
2022-08-24T16:38:47.994Z,32.00
2022-08-24T16:41:20.774Z,31.90
2022-08-24T16:43:49.545Z,31.80
2022-08-24T16:46:23.369Z,31.70
2022-08-24T16:48:52.106Z,31.70
2022-08-24T16:51:19.348Z,31.80
2022-08-24T16:53:48.726Z,31.90
2022-08-24T16:56:17.183Z,31.60
2022-08-24T16:58:47.472Z,31.40
2022-08-24T17:01:15.670Z,31.30
2022-08-24T17:03:43.186Z,31.30
2022-08-24T17:06:12.932Z,31.20
2022-08-24T17:08:40.641Z,31.40
2022-08-24T17:11:09.290Z,31.50
2022-08-24T17:13:50.150Z,31.70
2022-08-24T17:16:41.549Z,31.60
2022-08-24T17:19:13.098Z,31.50
2022-08-24T17:21:44.113Z,31.70
2022-08-24T17:24:15.312Z,31.60
2022-08-24T17:26:47.506Z,31.60
2022-08-24T17:29:18.472Z,31.50
2022-08-24T17:31:50.462Z,31.50
2022-08-24T17:34:25.312Z,31.40
2022-08-24T17:36:56.657Z,31.50
2022-08-24T17:39:25.333Z,31.40
2022-08-24T17:41:54.468Z,31.40
2022-08-24T17:44:26.549Z,31.40
2022-08-24T17:46:57.761Z,31.30
2022-08-24T17:49:26.043Z,31.30
2022-08-24T17:51:56.069Z,31.40
2022-08-24T17:54:23.877Z,31.30
2022-08-24T17:56:51.595Z,31.20
2022-08-24T17:59:30.469Z,31.10
2022-08-24T18:02:04.542Z,31.00
2022-08-24T18:04:34.291Z,30.90
2022-08-24T18:07:08.251Z,30.90
2022-08-24T18:09:46.199Z,30.90
2022-08-24T18:12:18.651Z,30.90
2022-08-24T18:14:50.967Z,30.90
2022-08-24T18:17:22.871Z,30.90
2022-08-24T18:19:55.188Z,30.80
2022-08-24T18:22:22.447Z,30.80
2022-08-24T18:24:50.131Z,30.70
2022-08-24T18:27:24.143Z,30.60
2022-08-24T18:29:55.023Z,30.50
2022-08-24T18:45:33.358Z,30.50
2022-08-24T18:48:02.123Z,29.70
2022-08-24T18:50:40.144Z,29.80
2022-08-24T18:53:09.646Z,29.80
2022-08-24T18:55:39.031Z,29.80
2022-08-24T18:58:11.027Z,29.70
2022-08-24T19:00:41.079Z,29.70
2022-08-24T19:03:13.245Z,29.60
2022-08-24T19:05:41.153Z,29.50
2022-08-24T19:08:13.422Z,29.30
2022-08-24T19:10:40.740Z,29.20
2022-08-24T19:13:15.413Z,29.10
2022-08-24T19:15:46.603Z,29.00
2022-08-24T19:18:16.184Z,28.90
2022-08-24T19:20:49.814Z,28.90
2022-08-24T19:23:21.040Z,28.80
2022-08-24T19:25:49.151Z,28.70
2022-08-24T19:28:17.146Z,28.60
2022-08-24T19:30:46.703Z,28.50
2022-08-24T19:33:22.279Z,28.40
2022-08-24T19:35:51.740Z,28.40
2022-08-24T19:38:21.974Z,28.30
2022-08-24T19:40:54.190Z,28.20
2022-08-24T19:43:26.503Z,28.10
2022-08-24T19:46:06.388Z,28.00
2022-08-24T19:48:35.674Z,28.00
2022-08-24T19:51:09.488Z,28.00
2022-08-24T19:53:37.713Z,27.90
2022-08-24T19:56:10.282Z,27.90
2022-08-24T19:58:40.563Z,27.90
2022-08-24T20:01:15.656Z,27.80
2022-08-24T20:03:43.158Z,27.80
2022-08-24T20:06:14.458Z,27.80
2022-08-24T20:08:41.929Z,27.80
2022-08-24T20:11:11.887Z,27.80
2022-08-24T20:13:39.294Z,27.70
2022-08-24T20:16:10.605Z,27.70
2022-08-24T20:18:41.225Z,27.70
2022-08-24T20:21:09.699Z,27.60
2022-08-24T20:23:39.926Z,27.50
2022-08-24T20:26:08.094Z,27.50
2022-08-24T20:28:42.960Z,27.50
2022-08-24T20:31:12.478Z,27.40
2022-08-24T20:33:44.444Z,27.30
2022-08-24T20:36:37.122Z,27.30
2022-08-24T20:39:10.713Z,27.30
2022-08-24T20:41:39.052Z,27.20
2022-08-24T20:44:09.243Z,27.20
2022-08-24T20:46:38.075Z,27.10
2022-08-24T20:49:07.684Z,27.10
2022-08-24T20:51:44.895Z,27.00
2022-08-24T20:54:14.806Z,27.00
2022-08-24T20:56:44.198Z,27.00
2022-08-24T20:59:13.076Z,26.90
2022-08-24T21:01:47.249Z,26.80
2022-08-24T21:04:16.882Z,26.70
2022-08-24T21:06:45.525Z,26.70
2022-08-24T21:09:14.495Z,26.70
2022-08-24T21:11:43.221Z,26.60
2022-08-24T21:14:10.557Z,26.60
2022-08-24T21:16:40.321Z,26.50
2022-08-24T21:19:10.340Z,26.50
2022-08-24T21:21:42.125Z,26.50
2022-08-24T21:24:14.224Z,26.40
2022-08-24T21:26:43.922Z,26.30
2022-08-24T21:29:11.868Z,26.30
2022-08-24T21:31:39.728Z,26.20
2022-08-24T21:34:27.904Z,26.20
2022-08-24T21:36:55.925Z,26.00
2022-08-24T21:39:23.169Z,26.10
2022-08-24T21:41:53.451Z,26.00
2022-08-24T21:44:20.770Z,26.00
2022-08-24T21:46:49.841Z,26.10
2022-08-24T21:49:20.318Z,26.00
2022-08-24T21:51:48.223Z,25.90
2022-08-24T21:54:18.239Z,25.90
2022-08-24T21:56:46.084Z,25.80
2022-08-24T21:59:13.701Z,25.80
2022-08-24T22:01:41.462Z,25.80
2022-08-24T22:04:08.889Z,25.80
2022-08-24T22:06:36.653Z,25.80
2022-08-24T22:09:05.409Z,25.70
2022-08-24T22:11:34.954Z,25.60
2022-08-24T22:14:03.736Z,25.60
2022-08-24T22:16:37.060Z,25.50
2022-08-24T22:19:05.059Z,25.50
2022-08-24T22:21:35.301Z,25.50
2022-08-24T22:24:03.894Z,25.40
2022-08-24T22:26:33.292Z,25.30
2022-08-24T22:29:05.055Z,25.30
2022-08-24T22:31:35.269Z,25.20
2022-08-24T22:34:05.484Z,25.20
2022-08-24T22:36:33.215Z,25.20
2022-08-24T22:39:01.161Z,25.20
2022-08-24T22:41:29.068Z,25.20
2022-08-24T22:44:16.419Z,25.10
2022-08-24T22:46:51.130Z,25.00
2022-08-24T22:49:20.316Z,24.90
2022-08-24T22:51:48.090Z,24.90
2022-08-24T22:54:16.297Z,24.90
2022-08-24T22:56:50.130Z,24.90
2022-08-24T22:59:24.545Z,24.80
2022-08-24T23:01:53.972Z,24.80
2022-08-24T23:04:26.433Z,24.80
2022-08-24T23:06:56.300Z,24.80
2022-08-24T23:09:26.262Z,24.80
2022-08-24T23:11:55.183Z,24.70
2022-08-24T23:14:23.630Z,24.80
2022-08-24T23:16:52.167Z,24.70
2022-08-24T23:19:41.953Z,24.70
2022-08-24T23:22:11.925Z,24.70
2022-08-24T23:24:40.233Z,24.70
2022-08-24T23:27:12.183Z,24.60
2022-08-24T23:29:41.915Z,24.60
2022-08-24T23:32:09.211Z,24.50
2022-08-24T23:34:38.974Z,24.40
2022-08-24T23:37:06.311Z,24.50
2022-08-24T23:39:38.100Z,24.50
2022-08-24T23:42:07.895Z,24.30
2022-08-24T23:44:35.997Z,24.30
2022-08-24T23:47:04.033Z,24.30
2022-08-24T23:49:31.825Z,24.20
2022-08-24T23:52:02.376Z,24.20
2022-08-24T23:54:30.227Z,24.10
2022-08-24T23:57:00.556Z,24.10
2022-08-24T23:59:29.580Z,24.10
